createdAt,value
2022-10-14T00:01:19.023Z,98296.47
2022-10-14T00:03:49.536Z,98314.47
2022-10-14T00:06:22.076Z,98245.41
2022-10-14T00:08:48.678Z,98294.72
2022-10-14T00:11:19.127Z,98299.38
2022-10-14T00:13:48.097Z,98260.91
2022-10-14T00:16:27.799Z,98313.00
2022-10-14T00:18:54.625Z,98274.25
2022-10-14T00:21:21.742Z,98309.94
2022-10-14T00:23:48.665Z,98311.72
2022-10-14T00:26:22.331Z,98305.66
2022-10-14T00:28:49.983Z,98317.97
2022-10-14T00:31:17.795Z,98313.69
2022-10-14T00:33:47.396Z,98273.44
2022-10-14T00:36:16.617Z,98321.22
2022-10-14T00:38:43.850Z,98326.22
2022-10-14T00:41:13.864Z,98299.47
2022-10-14T00:44:05.854Z,98316.47
2022-10-14T00:46:35.877Z,98317.06
2022-10-14T00:49:17.683Z,98259.13
2022-10-14T00:51:49.262Z,98246.72
2022-10-14T00:54:20.773Z,98243.69
2022-10-14T00:56:48.175Z,98315.41
2022-10-14T00:59:15.422Z,98286.34
2022-10-14T01:01:42.503Z,98308.50
2022-10-14T01:04:09.296Z,98267.50
2022-10-14T01:06:53.616Z,98245.91
2022-10-14T01:09:22.996Z,98305.56
2022-10-14T01:12:27.030Z,98293.56
2022-10-14T01:15:06.329Z,98311.97
2022-10-14T01:18:03.928Z,98309.88
2022-10-14T01:20:45.412Z,98270.31
2022-10-14T01:23:45.739Z,98313.44
2022-10-14T01:26:52.614Z,98309.31
2022-10-14T01:29:43.669Z,98317.75
2022-10-14T01:32:20.388Z,98294.97
2022-10-14T01:35:16.719Z,98284.16
2022-10-14T01:37:50.485Z,98289.13
2022-10-14T01:40:30.372Z,98188.50
2022-10-14T01:43:01.184Z,98263.94
2022-10-14T01:45:30.668Z,98264.03
2022-10-14T01:47:59.860Z,98256.84
2022-10-14T01:50:31.606Z,98287.09
2022-10-14T01:53:11.636Z,98245.44
2022-10-14T01:55:46.897Z,98278.03
2022-10-14T01:58:18.239Z,98278.03
2022-10-14T02:00:47.781Z,98212.91
2022-10-14T02:03:15.747Z,98248.38
2022-10-14T02:06:00.644Z,98239.16
2022-10-14T02:08:37.026Z,98266.53
2022-10-14T02:11:14.493Z,98268.38
2022-10-14T02:14:19.797Z,98230.34
2022-10-14T02:17:05.853Z,98246.50
2022-10-14T02:19:47.533Z,98245.44
2022-10-14T02:22:30.556Z,98227.78
2022-10-14T02:25:06.825Z,98222.19
2022-10-14T02:27:35.350Z,98233.59
2022-10-14T02:30:04.978Z,98164.47
2022-10-14T02:32:33.509Z,98219.88
2022-10-14T02:35:01.990Z,98227.00
2022-10-14T02:37:30.679Z,98210.81
2022-10-14T02:40:07.475Z,98203.41
2022-10-14T02:42:34.574Z,98174.44
2022-10-14T02:45:06.563Z,98161.09
2022-10-14T02:47:36.575Z,98181.53
2022-10-14T02:50:03.725Z,98203.81
2022-10-14T02:52:31.830Z,98194.34
2022-10-14T02:54:59.663Z,98139.94
2022-10-14T02:57:26.416Z,98155.50
2022-10-14T02:59:55.721Z,98173.84
2022-10-14T03:02:24.422Z,98123.47
2022-10-14T03:04:53.820Z,98163.41
2022-10-14T03:07:20.970Z,98173.63
2022-10-14T03:09:51.265Z,98135.88
2022-10-14T03:12:20.320Z,98152.47
2022-10-14T03:14:48.018Z,98158.16
2022-10-14T03:17:17.162Z,98122.16
2022-10-14T03:19:45.092Z,98105.09
2022-10-14T03:22:14.477Z,98175.94
2022-10-14T03:24:41.631Z,98173.59
2022-10-14T03:27:24.860Z,98123.19
2022-10-14T03:29:58.877Z,98128.53
2022-10-14T03:32:26.787Z,98172.56
2022-10-14T03:35:13.823Z,98137.13
2022-10-14T03:37:46.186Z,98150.94
2022-10-14T03:40:14.505Z,98127.50
2022-10-14T03:42:41.994Z,98090.66
2022-10-14T03:45:10.948Z,98158.81
2022-10-14T03:47:39.434Z,98106.91
2022-10-14T03:50:06.331Z,98163.97
2022-10-14T03:52:55.757Z,98136.19
2022-10-14T03:55:32.837Z,98140.00
2022-10-14T03:57:59.733Z,98129.47
2022-10-14T04:00:27.216Z,98076.16
2022-10-14T04:03:08.726Z,98093.22
2022-10-14T04:05:39.634Z,98131.53
2022-10-14T04:08:18.262Z,98137.00
2022-10-14T04:10:56.179Z,98125.41
2022-10-14T04:13:24.778Z,98148.66
2022-10-14T04:15:51.396Z,98130.28
2022-10-14T04:18:22.494Z,98036.53
2022-10-14T04:20:50.878Z,98143.41
2022-10-14T04:23:21.304Z,98154.44
2022-10-14T04:25:52.836Z,98141.44
2022-10-14T04:28:20.343Z,98110.66
2022-10-14T04:30:53.652Z,98088.84
2022-10-14T04:33:27.374Z,98073.06
2022-10-14T04:36:04.804Z,98125.41
2022-10-14T04:38:38.949Z,98117.13
2022-10-14T04:41:08.358Z,98103.00
2022-10-14T04:43:35.301Z,98052.84
2022-10-14T04:46:17.760Z,98103.44
2022-10-14T04:48:47.796Z,98109.91
2022-10-14T04:51:35.376Z,98099.22
2022-10-14T04:54:02.081Z,97999.84
2022-10-14T04:56:36.817Z,98062.34
2022-10-14T04:59:05.500Z,98038.91
2022-10-14T05:01:51.851Z,98060.22
2022-10-14T05:04:18.851Z,98021.47
2022-10-14T05:06:47.662Z,98056.16
2022-10-14T05:09:17.494Z,98079.59
2022-10-14T05:11:46.622Z,98065.00
2022-10-14T05:14:17.040Z,98083.91
2022-10-14T05:16:48.097Z,98043.44
2022-10-14T05:19:19.800Z,98044.72
2022-10-14T05:21:50.105Z,98047.16
2022-10-14T05:24:25.382Z,98052.38
2022-10-14T05:26:52.722Z,98077.09
2022-10-14T05:29:19.471Z,97997.38
2022-10-14T05:31:50.053Z,98070.91
2022-10-14T05:34:24.477Z,98071.94
2022-10-14T05:36:51.726Z,98089.47
2022-10-14T05:39:20.134Z,98059.41
2022-10-14T05:41:48.406Z,98070.66
2022-10-14T05:44:19.921Z,98090.16
2022-10-14T05:46:49.558Z,98065.56
2022-10-14T05:49:16.505Z,98061.63
2022-10-14T05:51:44.124Z,98093.41
2022-10-14T05:54:17.646Z,98070.75
2022-10-14T05:56:44.530Z,98064.81
2022-10-14T05:59:11.622Z,98052.41
2022-10-14T06:01:40.058Z,98062.38
2022-10-14T06:04:06.992Z,98077.03
2022-10-14T06:06:34.152Z,98052.88
2022-10-14T06:09:00.862Z,98065.41
2022-10-14T06:11:27.445Z,98045.91
2022-10-14T06:13:54.248Z,98046.75
2022-10-14T06:16:21.729Z,98052.78
2022-10-14T06:18:52.280Z,98013.31
2022-10-14T06:21:22.073Z,98073.56
2022-10-14T06:23:48.767Z,98033.50
2022-10-14T06:26:16.403Z,98070.16
2022-10-14T06:28:43.173Z,98046.34
2022-10-14T06:31:09.759Z,98063.66
2022-10-14T06:33:36.600Z,98054.63
2022-10-14T06:36:06.476Z,98066.56
2022-10-14T06:38:33.301Z,98070.16
2022-10-14T06:40:59.998Z,98017.84
2022-10-14T06:43:27.447Z,97992.66
2022-10-14T06:45:58.305Z,98056.91
2022-10-14T06:48:24.825Z,98018.22
2022-10-14T06:50:52.236Z,97984.63
2022-10-14T06:53:19.464Z,98073.69
2022-10-14T06:55:46.364Z,98009.75
2022-10-14T06:58:14.948Z,97968.09
2022-10-14T07:00:47.097Z,97994.13
2022-10-14T07:03:18.705Z,98029.84
2022-10-14T07:05:47.601Z,98014.44
2022-10-14T07:08:15.571Z,98019.50
2022-10-14T07:10:43.085Z,98033.31
2022-10-14T07:13:09.694Z,98062.28
2022-10-14T07:15:37.833Z,98058.66
2022-10-14T07:18:06.298Z,98052.13
2022-10-14T07:20:35.979Z,98048.59
2022-10-14T07:23:02.656Z,97993.56
2022-10-14T07:25:29.123Z,98056.06
2022-10-14T07:27:55.824Z,98026.22
2022-10-14T07:30:22.444Z,98031.25
2022-10-14T07:32:49.265Z,98028.63
2022-10-14T07:35:17.005Z,98033.94
2022-10-14T07:37:43.568Z,98024.56
2022-10-14T07:40:11.237Z,98069.22
2022-10-14T07:42:38.118Z,98024.44
2022-10-14T07:45:06.937Z,98040.81
2022-10-14T07:47:33.937Z,98052.41
2022-10-14T07:50:02.409Z,98053.31
2022-10-14T07:52:29.304Z,98059.88
2022-10-14T07:54:55.946Z,98059.66
2022-10-14T07:57:24.246Z,97996.06
2022-10-14T07:59:52.817Z,98057.22
2022-10-14T08:02:19.555Z,98007.00
2022-10-14T08:04:47.091Z,98066.56
2022-10-14T08:07:17.121Z,98035.25
2022-10-14T08:09:43.994Z,98053.09
2022-10-14T08:12:11.168Z,97935.91
2022-10-14T08:14:37.928Z,97895.66
2022-10-14T08:17:04.604Z,98016.53
2022-10-14T08:19:31.455Z,98028.50
2022-10-14T08:21:58.213Z,97899.44
2022-10-14T08:24:24.956Z,98019.97
2022-10-14T08:26:54.866Z,98057.66
2022-10-14T08:29:24.826Z,98046.47
2022-10-14T08:31:52.789Z,98025.28
2022-10-14T08:34:24.441Z,98008.94
2022-10-14T08:36:52.071Z,97974.25
2022-10-14T08:39:19.590Z,97980.22
2022-10-14T08:42:25.328Z,97971.94
2022-10-14T08:44:57.003Z,98048.13
2022-10-14T08:47:31.404Z,98003.16
2022-10-14T08:50:23.537Z,98042.28
2022-10-14T08:53:01.014Z,98043.47
2022-10-14T08:55:39.869Z,98046.72
2022-10-14T08:58:31.803Z,98039.53
2022-10-14T09:01:04.044Z,98042.41
2022-10-14T09:03:34.785Z,97972.16
2022-10-14T09:06:06.488Z,97954.25
2022-10-14T09:08:40.593Z,98000.34
2022-10-14T09:11:13.015Z,97986.66
2022-10-14T09:13:43.364Z,98025.19
2022-10-14T09:16:17.952Z,98017.38
2022-10-14T09:18:53.897Z,98016.31
2022-10-14T09:21:48.067Z,98023.75
2022-10-14T09:24:32.402Z,98018.69
2022-10-14T09:27:05.469Z,97962.03
2022-10-14T09:29:46.312Z,97974.25
2022-10-14T09:32:19.784Z,98008.00
2022-10-14T09:34:49.777Z,97980.78
2022-10-14T09:37:30.133Z,98000.22
2022-10-14T09:40:01.640Z,97967.50
2022-10-14T09:42:51.316Z,97967.22
2022-10-14T09:45:22.560Z,97963.34
2022-10-14T09:47:54.095Z,97983.66
2022-10-14T09:50:48.433Z,97965.50
2022-10-14T09:53:19.017Z,97945.38
2022-10-14T09:55:49.508Z,97909.84
2022-10-14T09:58:19.095Z,97976.09
2022-10-14T10:00:46.174Z,97976.59
2022-10-14T10:03:32.786Z,97924.88
2022-10-14T10:06:10.342Z,97961.34
2022-10-14T10:08:40.417Z,97953.72
2022-10-14T10:11:11.238Z,97959.25
2022-10-14T10:13:46.968Z,97919.84
2022-10-14T10:16:35.087Z,97953.88
2022-10-14T10:19:20.371Z,97932.16
2022-10-14T10:21:47.899Z,97926.13
2022-10-14T10:24:26.007Z,97959.69
2022-10-14T10:26:55.236Z,97912.22
2022-10-14T10:29:32.796Z,97958.69
2022-10-14T10:32:14.309Z,97960.84
2022-10-14T10:35:08.092Z,97959.25
2022-10-14T10:37:53.022Z,97936.88
2022-10-14T10:40:26.036Z,97955.50
2022-10-14T10:43:04.800Z,97915.75
2022-10-14T10:46:00.377Z,97891.69
2022-10-14T10:48:47.706Z,97952.75
2022-10-14T10:51:26.514Z,97924.94
2022-10-14T10:54:25.312Z,97923.84
2022-10-14T10:56:59.529Z,97892.09
2022-10-14T10:59:56.605Z,97885.69
2022-10-14T11:02:52.133Z,97937.06
2022-10-14T11:05:48.749Z,97917.66
2022-10-14T11:08:46.102Z,97941.91
2022-10-14T11:11:49.503Z,97932.13
2022-10-14T11:14:41.020Z,97937.03
2022-10-14T11:20:31.561Z,97920.97
2022-10-14T11:23:31.518Z,97920.44
2022-10-14T11:26:07.234Z,97870.25
2022-10-14T11:29:07.766Z,97912.00
2022-10-14T11:31:42.903Z,97878.91
2022-10-14T11:34:32.510Z,97909.91
2022-10-14T11:37:51.327Z,97896.28
2022-10-14T11:40:31.892Z,97906.03
2022-10-14T11:43:32.967Z,97911.69
2022-10-14T11:46:06.427Z,97900.16
2022-10-14T11:49:09.655Z,97904.22
2022-10-14T11:51:41.056Z,97881.63
2022-10-14T11:54:17.162Z,97901.25
2022-10-14T11:57:04.510Z,97889.94
2022-10-14T12:00:01.313Z,97886.97
2022-10-14T12:02:58.313Z,97881.31
2022-10-14T12:05:38.484Z,97871.00
2022-10-14T12:08:20.301Z,97881.06
2022-10-14T12:10:49.974Z,97886.97
2022-10-14T12:13:35.742Z,97857.38
2022-10-14T12:16:04.024Z,97866.66
2022-10-14T12:18:32.884Z,97870.50
2022-10-14T12:21:15.889Z,97857.06
2022-10-14T12:23:55.480Z,97865.53
2022-10-14T12:26:25.875Z,97872.53
2022-10-14T12:28:54.556Z,97844.19
2022-10-14T12:31:32.348Z,97871.69
2022-10-14T12:34:31.706Z,97870.91
2022-10-14T12:36:59.769Z,97842.19
2022-10-14T12:39:34.889Z,97880.28
2022-10-14T12:42:11.285Z,97863.31
2022-10-14T12:44:43.483Z,97841.31
2022-10-14T12:47:24.862Z,97827.03
2022-10-14T12:49:58.800Z,97872.91
2022-10-14T12:52:29.047Z,97862.97
2022-10-14T12:55:09.882Z,97719.41
2022-10-14T12:57:41.531Z,97874.03
2022-10-14T13:00:36.547Z,97856.84
2022-10-14T13:03:06.041Z,97871.91
2022-10-14T13:05:45.078Z,97862.81
2022-10-14T13:08:21.023Z,97863.28
2022-10-14T13:11:09.994Z,97832.03
2022-10-14T13:13:52.511Z,97849.53
2022-10-14T13:16:39.692Z,97851.69
2022-10-14T13:19:50.512Z,97780.53
2022-10-14T13:22:31.383Z,97847.59
2022-10-14T13:25:28.292Z,97701.03
2022-10-14T13:28:15.880Z,97764.19
2022-10-14T13:30:59.070Z,97812.97
2022-10-14T13:33:48.492Z,97814.56
2022-10-14T13:36:24.451Z,97796.03
2022-10-14T13:38:59.594Z,97797.38
2022-10-14T13:41:30.689Z,97804.06
2022-10-14T13:44:01.125Z,97760.13
2022-10-14T13:46:41.262Z,97805.13
2022-10-14T13:51:56.898Z,97793.13
2022-10-14T13:54:30.656Z,97816.75
2022-10-14T13:57:28.642Z,97804.41
2022-10-14T14:02:40.229Z,97789.03
2022-10-14T14:05:14.532Z,97786.94
2022-10-14T14:10:30.401Z,97796.94
2022-10-14T14:12:58.507Z,97799.34
2022-10-14T14:15:29.024Z,97806.34
2022-10-14T14:17:55.766Z,97801.78
2022-10-14T14:20:25.308Z,97738.94
2022-10-14T14:22:53.328Z,97605.97
2022-10-14T14:25:38.163Z,97800.63
2022-10-14T14:28:14.316Z,97775.22
2022-10-14T14:30:54.583Z,97650.16
2022-10-14T14:33:48.479Z,97794.97
2022-10-14T14:36:27.440Z,97769.13
2022-10-14T14:39:02.172Z,97732.53
2022-10-14T14:41:30.815Z,97768.94
2022-10-14T14:44:25.796Z,97778.09
2022-10-14T14:46:57.976Z,97779.94
2022-10-14T14:49:35.327Z,97752.00
2022-10-14T14:52:03.569Z,97745.47
2022-10-14T14:54:31.114Z,97750.59
2022-10-14T14:57:06.174Z,97717.78
2022-10-14T14:59:39.498Z,97732.00
2022-10-14T15:02:21.712Z,97747.94
2022-10-14T15:05:21.467Z,97752.47
2022-10-14T15:07:49.918Z,97760.59
2022-10-14T15:10:24.212Z,97731.53
2022-10-14T15:12:56.514Z,97727.53
2022-10-14T15:15:33.849Z,97725.94
2022-10-14T15:18:05.040Z,97748.25
2022-10-14T15:20:36.906Z,97763.31
2022-10-14T15:23:40.945Z,97760.94
2022-10-14T15:26:28.497Z,97750.97
2022-10-14T15:29:10.628Z,97747.75
2022-10-14T15:31:39.073Z,97753.13
2022-10-14T15:34:14.674Z,97700.69
2022-10-14T15:36:41.425Z,97714.94
2022-10-14T15:39:14.446Z,97673.00
2022-10-14T15:41:42.135Z,97718.72
2022-10-14T15:44:11.486Z,97738.34
2022-10-14T15:46:58.615Z,97624.50
2022-10-14T15:49:36.260Z,97727.34
2022-10-14T15:52:04.417Z,97723.03
2022-10-14T15:54:31.189Z,97721.94
2022-10-14T15:56:58.014Z,97692.63
2022-10-14T15:59:25.604Z,97735.38
2022-10-14T16:01:53.015Z,97733.75
2022-10-14T16:04:26.704Z,97732.13
2022-10-14T16:06:56.012Z,97728.66
2022-10-14T16:09:23.854Z,97727.56
2022-10-14T16:11:58.136Z,97702.53
2022-10-14T16:14:27.027Z,97682.91
2022-10-14T16:16:54.063Z,97723.50
2022-10-14T16:19:20.738Z,97689.66
2022-10-14T16:21:50.206Z,97707.09
2022-10-14T16:24:19.200Z,97709.78
2022-10-14T16:26:49.447Z,97703.59
2022-10-14T16:29:20.484Z,97712.19
2022-10-14T16:31:51.448Z,97679.91
2022-10-14T16:34:19.975Z,97691.72
2022-10-14T16:36:48.813Z,97608.84
2022-10-14T16:39:16.822Z,97691.47
2022-10-14T16:41:43.614Z,97710.00
2022-10-14T16:44:24.974Z,97690.94
2022-10-14T16:47:15.713Z,97628.53
2022-10-14T16:49:45.061Z,97638.72
2022-10-14T16:52:12.126Z,97698.44
2022-10-14T16:54:38.631Z,97663.50
2022-10-14T16:57:06.349Z,97592.19
2022-10-14T16:59:33.197Z,97634.38
2022-10-14T17:02:00.547Z,97584.09
2022-10-14T17:04:27.647Z,97604.28
2022-10-14T17:07:07.430Z,97684.19
2022-10-14T17:09:36.750Z,97661.31
2022-10-14T17:12:09.641Z,97692.78
2022-10-14T17:14:40.890Z,97670.72
2022-10-14T17:17:09.574Z,97697.63
2022-10-14T17:19:36.345Z,97657.19
2022-10-14T17:22:03.460Z,97687.03
2022-10-14T17:24:30.657Z,97638.63
2022-10-14T17:26:57.956Z,97680.69
2022-10-14T17:29:24.703Z,97668.53
2022-10-14T17:31:56.250Z,97681.72
2022-10-14T17:34:23.477Z,97543.69
2022-10-14T17:36:55.550Z,97520.78
2022-10-14T17:39:27.629Z,97643.97
2022-10-14T17:41:58.485Z,97688.88
2022-10-14T17:44:25.055Z,97668.63
2022-10-14T17:46:53.278Z,97604.81
2022-10-14T17:49:19.838Z,97676.91
2022-10-14T17:51:50.009Z,97687.59
2022-10-14T17:54:18.491Z,97689.19
2022-10-14T17:56:44.999Z,97677.91
2022-10-14T17:59:14.211Z,97672.28
2022-10-14T18:02:01.689Z,97689.28
2022-10-14T18:04:29.193Z,97669.88
2022-10-14T18:06:56.137Z,97668.75
2022-10-14T18:09:22.676Z,97682.19
2022-10-14T18:14:40.854Z,97651.00
2022-10-14T18:17:10.825Z,97652.03
2022-10-14T18:19:46.158Z,97632.63
2022-10-14T18:22:14.569Z,97644.25
2022-10-14T18:24:44.147Z,97653.69
2022-10-14T18:27:11.614Z,97600.94
2022-10-14T18:29:39.458Z,97662.84
2022-10-14T18:32:14.816Z,97661.00
2022-10-14T18:34:41.922Z,97624.78
2022-10-14T18:37:08.547Z,97657.69
2022-10-14T18:39:35.348Z,97600.25
2022-10-14T18:42:03.104Z,97634.47
2022-10-14T18:44:29.594Z,97640.41
2022-10-14T18:46:56.894Z,97644.22
2022-10-14T18:49:23.690Z,97607.81
2022-10-14T18:51:50.515Z,97627.78
2022-10-14T18:54:19.765Z,97648.28
2022-10-14T18:56:47.382Z,97627.34
2022-10-14T18:59:19.751Z,97616.03
2022-10-14T19:01:48.063Z,97625.66
2022-10-14T19:04:16.234Z,97620.31
2022-10-14T19:06:49.506Z,97575.09
2022-10-14T19:09:19.585Z,97635.13
2022-10-14T19:11:58.091Z,97593.91
2022-10-14T19:14:24.985Z,97574.56
2022-10-14T19:16:51.589Z,97457.78
2022-10-14T19:19:19.801Z,97616.66
2022-10-14T19:21:50.255Z,97614.53
2022-10-14T19:24:17.486Z,97598.91
2022-10-14T19:26:46.241Z,97574.66
2022-10-14T19:29:15.324Z,97611.28
2022-10-14T19:31:43.827Z,97577.34
2022-10-14T19:34:14.302Z,97574.16
2022-10-14T19:36:43.243Z,97609.16
2022-10-14T19:39:13.143Z,97598.44
2022-10-14T19:41:43.277Z,97550.75
2022-10-14T19:44:11.380Z,97576.41
2022-10-14T19:46:41.573Z,97581.50
2022-10-14T19:49:09.666Z,97289.22
2022-10-14T19:51:36.384Z,97558.63
2022-10-14T19:54:03.440Z,97332.34
2022-10-14T19:56:31.276Z,97420.44
2022-10-14T19:58:59.130Z,97306.16
2022-10-14T20:01:30.585Z,97550.00
2022-10-14T20:03:58.942Z,97542.47
2022-10-14T20:06:27.465Z,97540.84
2022-10-14T20:08:53.953Z,97397.13
2022-10-14T20:11:23.456Z,97556.03
2022-10-14T20:13:50.310Z,97521.63
2022-10-14T20:16:18.486Z,97499.81
2022-10-14T20:18:45.533Z,97471.56
2022-10-14T20:21:16.214Z,97498.88
2022-10-14T20:23:44.388Z,97541.81
2022-10-14T20:26:14.925Z,97495.81
2022-10-14T20:28:41.784Z,97493.66
2022-10-14T20:31:10.927Z,97516.00
2022-10-14T20:33:37.623Z,97529.75
2022-10-14T20:36:07.630Z,97440.47
2022-10-14T20:38:40.158Z,97537.84
2022-10-14T20:41:23.136Z,97512.56
2022-10-14T20:43:50.314Z,97481.09
2022-10-14T20:46:17.429Z,97537.06
2022-10-14T20:48:44.297Z,97505.03
2022-10-14T20:51:16.241Z,97519.88
2022-10-14T20:53:43.616Z,97479.06
2022-10-14T20:56:12.454Z,97434.16
2022-10-14T20:58:39.604Z,97460.75
2022-10-14T21:01:17.104Z,97445.16
2022-10-14T21:03:45.493Z,97508.91
2022-10-14T21:06:18.589Z,97508.28
2022-10-14T21:08:46.085Z,97487.38
2022-10-14T21:11:20.535Z,97498.03
2022-10-14T21:13:53.361Z,97428.75
2022-10-14T21:16:24.564Z,97506.44
2022-10-14T21:19:03.309Z,97498.16
2022-10-14T21:21:34.133Z,97492.78
2022-10-14T21:24:01.427Z,97472.84
2022-10-14T21:26:29.555Z,97485.88
2022-10-14T21:28:56.189Z,97487.50
2022-10-14T21:31:23.033Z,97462.53
2022-10-14T21:34:01.304Z,97480.25
2022-10-14T21:36:31.709Z,97477.56
2022-10-14T21:39:00.927Z,97434.09
2022-10-14T21:41:30.786Z,97439.47
2022-10-14T21:43:59.269Z,97442.47
2022-10-14T21:46:26.670Z,97455.38
2022-10-14T21:48:57.046Z,97451.88
2022-10-14T21:51:26.151Z,97426.91
2022-10-14T21:53:53.432Z,97430.88
2022-10-14T21:56:20.554Z,97417.19
2022-10-14T21:58:47.904Z,97441.16
2022-10-14T22:01:23.487Z,97440.34
2022-10-14T22:03:55.272Z,97410.28
2022-10-14T22:06:22.422Z,97437.69
2022-10-14T22:08:52.542Z,97378.84
2022-10-14T22:11:22.827Z,97421.06
2022-10-14T22:13:53.478Z,97416.53
2022-10-14T22:16:20.734Z,97354.16
2022-10-14T22:18:50.358Z,97378.31
2022-10-14T22:21:19.527Z,97413.00
2022-10-14T22:23:47.915Z,97388.84
2022-10-14T22:26:17.787Z,97362.25
2022-10-14T22:28:45.513Z,97329.19
2022-10-14T22:31:15.997Z,97396.63
2022-10-14T22:33:43.301Z,97371.72
2022-10-14T22:36:13.122Z,97410.88
2022-10-14T22:38:41.793Z,97411.91
2022-10-14T22:41:11.786Z,97406.56
2022-10-14T22:43:39.488Z,97387.25
2022-10-14T22:46:07.998Z,97407.16
2022-10-14T22:48:36.209Z,97399.59
2022-10-14T22:51:09.629Z,97397.50
2022-10-14T22:53:37.549Z,97375.22
2022-10-14T22:56:14.853Z,97399.66
2022-10-14T22:58:41.525Z,97365.78
2022-10-14T23:01:13.588Z,97345.88
2022-10-14T23:03:40.934Z,97401.75
2022-10-14T23:06:10.680Z,97398.28
2022-10-14T23:08:38.562Z,97332.50
2022-10-14T23:11:06.447Z,97392.38
2022-10-14T23:13:33.702Z,97381.41
2022-10-14T23:16:05.561Z,97358.06
2022-10-14T23:18:37.637Z,97376.88
2022-10-14T23:21:09.338Z,97381.44
2022-10-14T23:23:36.051Z,97311.09
2022-10-14T23:26:03.024Z,97355.66
2022-10-14T23:28:29.739Z,97337.16
2022-10-14T23:30:59.907Z,97333.94
2022-10-14T23:33:26.694Z,97384.13
2022-10-14T23:35:53.351Z,97384.41
2022-10-14T23:38:27.307Z,97324.00
2022-10-14T23:40:55.371Z,97300.38
2022-10-14T23:43:23.274Z,97386.56
2022-10-14T23:45:53.166Z,97332.63
2022-10-14T23:48:19.960Z,97372.63
2022-10-14T23:50:49.288Z,97263.19
2022-10-14T23:53:15.949Z,97327.84
2022-10-14T23:55:49.072Z,97367.06
2022-10-14T23:58:15.933Z,97362.47
